createdAt,value
2018-12-05T00:00:01.252Z,91.50
2018-12-05T00:02:28.984Z,91.50
2018-12-05T00:04:56.457Z,91.70
2018-12-05T00:07:23.921Z,91.70
2018-12-05T00:09:51.378Z,91.70
2018-12-05T00:12:18.857Z,91.60
2018-12-05T00:14:46.320Z,91.30
2018-12-05T00:17:13.796Z,91.60
2018-12-05T00:19:41.265Z,91.60
2018-12-05T00:22:08.720Z,91.40
2018-12-05T00:24:36.197Z,91.40
2018-12-05T00:27:03.820Z,91.10
2018-12-05T00:29:31.276Z,91.30
2018-12-05T00:31:58.757Z,91.30
2018-12-05T00:34:26.728Z,91.40
2018-12-05T00:36:54.209Z,91.40
2018-12-05T00:39:21.676Z,91.60
2018-12-05T00:41:49.144Z,91.20
2018-12-05T00:44:16.648Z,91.20
2018-12-05T00:46:44.232Z,90.90
2018-12-05T00:49:11.768Z,91.30
2018-12-05T00:51:39.244Z,91.30
2018-12-05T00:54:06.710Z,91.50
2018-12-05T00:56:34.757Z,91.20
2018-12-05T00:59:02.384Z,91.20
2018-12-05T01:01:29.864Z,91.20
2018-12-05T01:03:57.336Z,91.00
2018-12-05T01:06:24.813Z,91.30
2018-12-05T01:08:52.704Z,91.40
2018-12-05T01:11:20.163Z,91.10
2018-12-05T01:13:47.620Z,91.10
2018-12-05T01:16:15.162Z,91.40
2018-12-05T01:18:42.633Z,91.90
2018-12-05T01:21:10.118Z,91.60
2018-12-05T01:23:37.576Z,92.10
2018-12-05T01:26:05.318Z,92.10
2018-12-05T01:28:32.784Z,92.30
2018-12-05T01:31:00.534Z,92.30
2018-12-05T01:33:28.009Z,92.50
2018-12-05T01:35:55.655Z,92.10
2018-12-05T01:38:23.108Z,92.00
2018-12-05T01:40:50.576Z,92.10
2018-12-05T01:43:18.328Z,91.90
2018-12-05T01:45:46.093Z,91.70
2018-12-05T01:48:13.553Z,91.70
2018-12-05T01:50:41.316Z,91.70
2018-12-05T01:53:09.081Z,91.50
2018-12-05T01:55:36.553Z,91.40
2018-12-05T01:58:04.093Z,91.00
2018-12-05T02:00:31.820Z,90.70
2018-12-05T02:02:59.345Z,90.60
2018-12-05T02:05:26.821Z,91.40
2018-12-05T02:07:54.384Z,91.50
2018-12-05T02:10:21.857Z,91.60
2018-12-05T02:12:49.333Z,91.40
2018-12-05T02:15:17.113Z,91.40
2018-12-05T02:17:44.981Z,91.40
2018-12-05T02:20:12.509Z,91.40
2018-12-05T02:22:40.302Z,91.40
2018-12-05T02:25:07.845Z,91.40
2018-12-05T02:27:35.305Z,91.20
2018-12-05T02:30:02.902Z,91.20
2018-12-05T02:32:30.381Z,91.30
2018-12-05T02:34:57.831Z,91.20
2018-12-05T02:37:25.310Z,91.30
2018-12-05T02:39:52.837Z,91.40
2018-12-05T02:42:20.338Z,91.30
2018-12-05T02:44:47.880Z,91.00
2018-12-05T02:47:15.344Z,90.90
2018-12-05T02:49:43.147Z,90.50
2018-12-05T02:52:10.601Z,90.40
2018-12-05T02:54:38.082Z,90.40
2018-12-05T02:57:05.560Z,90.40
2018-12-05T02:59:33.156Z,90.00
2018-12-05T03:02:00.645Z,90.10
2018-12-05T03:04:28.273Z,90.10
2018-12-05T03:06:55.774Z,90.30
2018-12-05T03:09:23.272Z,90.80
2018-12-05T03:11:50.740Z,91.50
2018-12-05T03:14:18.217Z,92.00
2018-12-05T03:16:45.694Z,92.30
2018-12-05T03:19:13.153Z,92.40
2018-12-05T03:21:40.690Z,92.20
2018-12-05T03:24:08.153Z,91.40
2018-12-05T03:26:35.635Z,90.70
2018-12-05T03:29:03.118Z,89.40
2018-12-05T03:31:30.585Z,88.00
2018-12-05T03:33:58.061Z,86.30
2018-12-05T03:36:25.554Z,85.80
2018-12-05T03:38:53.033Z,85.90
2018-12-05T03:41:20.561Z,85.30
2018-12-05T03:43:48.325Z,84.80
2018-12-05T03:46:15.804Z,83.80
2018-12-05T03:48:43.262Z,82.30
2018-12-05T03:51:10.778Z,82.40
2018-12-05T03:53:38.239Z,83.90
2018-12-05T03:56:05.760Z,83.70
2018-12-05T03:58:34.274Z,83.70
2018-12-05T04:01:02.407Z,83.60
2018-12-05T04:03:30.735Z,83.40
2018-12-05T04:05:58.258Z,82.40
2018-12-05T04:08:25.758Z,80.10
2018-12-05T04:10:53.525Z,79.20
2018-12-05T04:13:21.044Z,78.90
2018-12-05T04:15:48.541Z,77.70
2018-12-05T04:18:16.838Z,77.50
2018-12-05T04:20:45.786Z,76.10
2018-12-05T04:23:14.545Z,74.90
2018-12-05T04:25:42.253Z,74.80
2018-12-05T04:28:09.730Z,74.20
2018-12-05T04:30:37.194Z,73.60
2018-12-05T04:33:04.673Z,73.00
2018-12-05T04:35:32.135Z,73.60
2018-12-05T04:37:59.616Z,75.90
2018-12-05T04:40:27.405Z,77.10
2018-12-05T04:42:54.870Z,77.10
2018-12-05T04:45:22.346Z,73.10
2018-12-05T04:47:49.804Z,71.00
2018-12-05T04:50:17.260Z,72.40
2018-12-05T04:52:44.745Z,74.70
2018-12-05T04:55:12.453Z,71.70
2018-12-05T04:57:39.935Z,73.20
2018-12-05T05:00:07.829Z,70.80
2018-12-05T05:02:35.358Z,68.40
2018-12-05T05:05:02.953Z,68.60
2018-12-05T05:07:30.415Z,67.50
2018-12-05T05:09:58.222Z,63.90
2018-12-05T05:12:25.983Z,59.90
2018-12-05T05:14:54.097Z,56.90
2018-12-05T05:17:21.558Z,56.20
2018-12-05T05:19:49.176Z,52.60
2018-12-05T05:22:16.704Z,53.10
2018-12-05T05:24:44.356Z,57.70
2018-12-05T05:27:11.832Z,54.80
2018-12-05T05:29:39.336Z,51.20
2018-12-05T05:32:07.069Z,53.20
2018-12-05T05:34:34.557Z,51.70
2018-12-05T05:37:02.020Z,52.60
2018-12-05T05:39:29.488Z,49.40
2018-12-05T05:41:57.357Z,51.30
2018-12-05T05:44:24.924Z,48.10
2018-12-05T05:46:52.733Z,42.50
2018-12-05T05:49:20.281Z,39.10
2018-12-05T05:51:47.779Z,40.00
2018-12-05T05:54:15.239Z,35.60
2018-12-05T05:56:42.717Z,39.30
2018-12-05T05:59:10.197Z,52.20
2018-12-05T06:01:37.657Z,56.00
2018-12-05T06:04:05.124Z,57.20
2018-12-05T06:06:32.601Z,63.30
2018-12-05T06:09:00.065Z,52.20
2018-12-05T06:11:27.813Z,51.50
2018-12-05T06:13:55.273Z,51.90
2018-12-05T06:16:22.749Z,49.90
2018-12-05T06:18:50.449Z,56.10
2018-12-05T06:21:17.905Z,58.50
2018-12-05T06:23:45.608Z,53.70
2018-12-05T06:26:13.080Z,58.40
2018-12-05T06:28:40.569Z,60.20
2018-12-05T06:31:08.028Z,57.40
2018-12-05T06:33:35.497Z,57.20
2018-12-05T06:36:02.974Z,55.30
2018-12-05T06:38:30.436Z,62.30
2018-12-05T06:40:57.916Z,59.80
2018-12-05T06:43:25.374Z,61.20
2018-12-05T06:45:52.852Z,63.60
2018-12-05T06:48:20.345Z,64.20
2018-12-05T06:50:47.821Z,68.20
2018-12-05T06:53:15.285Z,60.90
2018-12-05T06:55:42.753Z,68.20
2018-12-05T06:58:10.234Z,65.10
2018-12-05T07:00:37.695Z,60.00
2018-12-05T07:03:05.173Z,52.50
2018-12-05T07:05:32.633Z,49.80
2018-12-05T07:08:00.113Z,45.20
2018-12-05T07:10:27.590Z,44.30
2018-12-05T07:12:55.049Z,41.90
2018-12-05T07:15:22.524Z,40.70
2018-12-05T07:17:50.006Z,40.40
2018-12-05T07:20:17.485Z,44.70
2018-12-05T07:22:44.941Z,38.50
2018-12-05T07:25:12.420Z,39.50
2018-12-05T07:27:39.901Z,35.40
2018-12-05T07:30:07.765Z,36.70
2018-12-05T07:32:35.241Z,35.30
2018-12-05T07:35:03.084Z,30.20
2018-12-05T07:37:30.561Z,35.30
2018-12-05T07:39:58.020Z,33.60
2018-12-05T07:42:25.496Z,34.10
2018-12-05T07:44:52.956Z,31.30
2018-12-05T07:47:20.433Z,33.90
2018-12-05T07:49:47.960Z,33.60
2018-12-05T07:52:15.453Z,42.00
2018-12-05T07:54:42.981Z,36.00
2018-12-05T07:57:10.486Z,34.80
2018-12-05T07:59:37.968Z,28.90
2018-12-05T08:02:05.493Z,30.10
2018-12-05T08:04:33.070Z,36.50
2018-12-05T08:07:00.848Z,32.20
2018-12-05T08:09:28.333Z,29.60
2018-12-05T08:11:55.792Z,33.00
2018-12-05T08:14:23.253Z,40.00
2018-12-05T08:16:50.807Z,30.80
2018-12-05T08:19:18.376Z,29.10
2018-12-05T08:21:46.092Z,31.40
2018-12-05T08:24:13.560Z,31.00
2018-12-05T08:26:41.029Z,30.40
2018-12-05T08:29:08.773Z,22.50
2018-12-05T08:31:36.319Z,26.40
2018-12-05T08:34:04.096Z,28.30
2018-12-05T08:36:31.569Z,22.70
2018-12-05T08:38:59.028Z,20.30
2018-12-05T08:41:26.508Z,25.60
2018-12-05T08:43:53.968Z,31.20
2018-12-05T08:46:21.449Z,36.50
2018-12-05T08:48:48.925Z,38.60
2018-12-05T08:51:16.384Z,33.20
2018-12-05T08:53:43.897Z,42.60
2018-12-05T08:56:11.351Z,45.50
2018-12-05T08:58:38.829Z,34.10
2018-12-05T09:01:06.284Z,38.50
2018-12-05T09:03:34.665Z,42.10
2018-12-05T09:06:02.317Z,37.30
2018-12-05T09:08:29.769Z,33.40
2018-12-05T09:10:57.253Z,23.60
2018-12-05T09:13:24.701Z,9.50
2018-12-05T09:15:52.176Z,19.00
2018-12-05T09:18:19.665Z,30.70
2018-12-05T09:20:47.232Z,28.80
2018-12-05T09:23:14.973Z,43.00
2018-12-05T09:25:42.434Z,29.70
2018-12-05T09:28:09.926Z,25.90
2018-12-05T09:30:37.648Z,7.80
2018-12-05T09:33:05.105Z,21.20
2018-12-05T09:35:32.585Z,16.40
2018-12-05T09:38:00.052Z,19.40
2018-12-05T09:40:27.524Z,9.90
2018-12-05T09:42:54.985Z,3.90
2018-12-05T09:45:22.701Z,5.10
2018-12-05T09:47:50.174Z,1.00
2018-12-05T09:50:17.628Z,5.90
2018-12-05T09:52:45.164Z,1.00
2018-12-05T09:55:12.680Z,2.00
2018-12-05T09:57:40.140Z,1.00
2018-12-05T10:00:08.753Z,1.00
2018-12-05T10:02:36.205Z,1.00
2018-12-05T10:05:04.897Z,1.00
2018-12-05T10:07:32.364Z,1.00
2018-12-05T10:09:59.809Z,1.00
2018-12-05T10:12:27.293Z,1.00
2018-12-05T10:14:54.745Z,1.00
2018-12-05T10:17:22.212Z,1.00
2018-12-05T10:19:49.958Z,1.00
2018-12-05T10:22:17.429Z,1.00
2018-12-05T10:24:44.897Z,1.00
2018-12-05T10:27:12.352Z,1.00
2018-12-05T10:29:39.812Z,1.00
2018-12-05T10:32:07.553Z,1.00
2018-12-05T10:34:35.013Z,1.00
2018-12-05T10:37:02.480Z,1.00
2018-12-05T10:39:29.935Z,1.00
2018-12-05T10:41:57.410Z,1.00
2018-12-05T10:44:24.864Z,1.00
2018-12-05T10:46:52.600Z,1.00
2018-12-05T10:49:20.145Z,1.00
2018-12-05T10:51:47.593Z,1.00
2018-12-05T10:54:15.144Z,1.00
2018-12-05T10:56:42.604Z,1.00
2018-12-05T10:59:10.056Z,1.00
2018-12-05T11:01:43.164Z,1.00
2018-12-05T11:04:18.493Z,1.00
2018-12-05T11:06:51.743Z,1.00
2018-12-05T11:09:24.845Z,1.00
2018-12-05T11:15:00.289Z,1.00
2018-12-05T11:17:33.549Z,1.00
2018-12-05T11:20:02.973Z,1.00
2018-12-05T11:22:36.184Z,1.00
2018-12-05T11:25:05.733Z,1.00
2018-12-05T11:27:33.189Z,1.00
2018-12-05T11:30:00.661Z,1.00
2018-12-05T11:32:28.114Z,1.00
2018-12-05T11:34:55.580Z,1.00
2018-12-05T11:37:23.133Z,1.00
2018-12-05T11:39:50.593Z,1.00
2018-12-05T11:42:18.041Z,1.00
2018-12-05T11:44:45.512Z,1.00
2018-12-05T11:47:12.957Z,1.00
2018-12-05T11:49:40.424Z,1.00
2018-12-05T11:52:07.881Z,1.00
2018-12-05T11:54:35.345Z,1.00
2018-12-05T11:57:02.876Z,1.00
2018-12-05T11:59:30.357Z,1.00
2018-12-05T12:01:57.870Z,1.00
2018-12-05T12:04:25.357Z,1.00
2018-12-05T12:06:52.854Z,1.00
2018-12-05T12:09:20.354Z,1.00
2018-12-05T12:11:47.838Z,1.00
2018-12-05T12:14:15.420Z,1.00
2018-12-05T12:16:43.027Z,1.00
2018-12-05T12:19:10.537Z,1.00
2018-12-05T12:21:38.022Z,1.00
2018-12-05T12:24:05.502Z,1.00
2018-12-05T12:26:33.500Z,1.00
2018-12-05T12:29:01.217Z,1.00
2018-12-05T12:31:28.698Z,1.00
2018-12-05T12:33:56.497Z,1.00
2018-12-05T12:36:23.986Z,1.00
2018-12-05T12:38:51.490Z,1.00
2018-12-05T12:41:18.986Z,1.00
2018-12-05T12:43:46.476Z,1.00
2018-12-05T12:46:14.078Z,1.00
2018-12-05T12:48:41.638Z,1.00
2018-12-05T12:51:09.162Z,1.00
2018-12-05T12:53:36.650Z,1.00
2018-12-05T12:56:04.166Z,1.00
2018-12-05T12:58:31.669Z,1.00
2018-12-05T13:00:59.154Z,1.00
2018-12-05T13:03:26.684Z,1.00
2018-12-05T13:05:54.253Z,1.00
2018-12-05T13:08:21.763Z,1.00
2018-12-05T13:10:49.407Z,1.00
2018-12-05T13:13:16.919Z,1.00
2018-12-05T13:15:44.437Z,1.00
2018-12-05T13:18:11.934Z,99.90
2018-12-05T13:20:39.456Z,99.90
2018-12-05T13:23:07.998Z,99.90
2018-12-05T13:25:35.506Z,1.00
2018-12-05T13:28:03.319Z,99.90
2018-12-05T13:30:30.841Z,85.00
2018-12-05T13:32:58.638Z,99.90
2018-12-05T13:35:26.211Z,99.90
2018-12-05T13:37:53.746Z,99.90
2018-12-05T13:40:21.238Z,99.90
2018-12-05T13:42:48.930Z,99.90
2018-12-05T13:45:16.597Z,99.90
2018-12-05T13:47:44.081Z,99.90
2018-12-05T13:50:11.682Z,99.90
2018-12-05T13:52:39.174Z,99.90
2018-12-05T13:55:06.869Z,99.90
2018-12-05T13:57:34.369Z,99.90
2018-12-05T14:00:01.913Z,1.00
2018-12-05T14:02:29.426Z,1.00
2018-12-05T14:04:56.911Z,1.00
2018-12-05T14:07:24.414Z,1.00
2018-12-05T14:09:51.911Z,1.00
2018-12-05T14:12:25.152Z,1.00
2018-12-05T14:14:52.649Z,1.00
2018-12-05T14:17:20.230Z,1.00
2018-12-05T14:19:47.999Z,1.00
2018-12-05T14:22:15.513Z,1.00
2018-12-05T14:24:43.078Z,1.00
2018-12-05T14:27:10.599Z,1.00
2018-12-05T14:29:38.106Z,1.00
2018-12-05T14:32:05.665Z,1.00
2018-12-05T14:34:33.171Z,1.00
2018-12-05T14:37:00.658Z,1.00
2018-12-05T14:39:28.165Z,1.00
2018-12-05T14:41:55.669Z,1.00
2018-12-05T14:44:23.349Z,1.00
2018-12-05T14:46:50.854Z,1.00
2018-12-05T14:49:18.610Z,1.00
2018-12-05T14:51:46.094Z,1.00
2018-12-05T14:54:13.711Z,2.20
2018-12-05T14:56:41.204Z,5.70
2018-12-05T14:59:08.730Z,13.10
2018-12-05T15:01:36.606Z,16.70
2018-12-05T15:04:04.152Z,21.60
2018-12-05T15:06:31.634Z,24.30
2018-12-05T15:08:59.385Z,26.10
2018-12-05T15:11:26.899Z,28.90
2018-12-05T15:13:54.412Z,30.50
2018-12-05T15:16:21.893Z,32.80
2018-12-05T15:18:49.373Z,36.20
2018-12-05T15:21:16.956Z,37.60
2018-12-05T15:23:44.526Z,37.20
2018-12-05T15:26:12.302Z,37.80
2018-12-05T15:28:40.577Z,38.20
2018-12-05T15:31:08.093Z,41.90
2018-12-05T15:33:35.807Z,45.80
2018-12-05T15:36:03.314Z,43.30
2018-12-05T15:38:30.903Z,45.70
2018-12-05T15:40:58.398Z,46.30
2018-12-05T15:43:25.919Z,42.90
2018-12-05T15:45:53.403Z,45.60
2018-12-05T15:48:20.909Z,45.10
2018-12-05T15:50:48.597Z,46.10
2018-12-05T15:53:16.218Z,44.90
2018-12-05T15:55:43.713Z,41.00
2018-12-05T15:58:11.234Z,41.30
2018-12-05T16:00:38.730Z,43.10
2018-12-05T16:03:06.246Z,40.90
2018-12-05T16:05:33.744Z,40.80
2018-12-05T16:08:01.233Z,41.30
2018-12-05T16:10:28.753Z,39.40
2018-12-05T16:12:56.241Z,37.70
2018-12-05T16:15:23.774Z,39.50
2018-12-05T16:17:51.776Z,38.70
2018-12-05T16:20:19.303Z,35.50
2018-12-05T16:22:46.819Z,35.70
2018-12-05T16:25:14.314Z,35.50
2018-12-05T16:27:41.833Z,32.80
2018-12-05T16:30:09.450Z,32.60
2018-12-05T16:32:37.218Z,33.20
2018-12-05T16:35:04.762Z,36.20
2018-12-05T16:37:32.245Z,34.90
2018-12-05T16:39:59.774Z,31.70
2018-12-05T16:42:27.262Z,32.60
2018-12-05T16:44:54.798Z,34.20
2018-12-05T16:47:22.366Z,33.30
2018-12-05T16:49:49.858Z,35.00
2018-12-05T16:52:17.378Z,36.30
2018-12-05T16:54:44.954Z,36.90
2018-12-05T16:57:12.458Z,36.00
2018-12-05T16:59:39.966Z,36.60
2018-12-05T17:02:07.553Z,34.90
2018-12-05T17:04:35.066Z,33.80
2018-12-05T17:07:02.623Z,35.30
2018-12-05T17:09:30.246Z,36.40
2018-12-05T17:11:57.737Z,36.50
2018-12-05T17:14:26.986Z,38.00
2018-12-05T17:16:54.767Z,37.10
2018-12-05T17:19:22.263Z,37.80
2018-12-05T17:21:49.780Z,39.20
2018-12-05T17:24:17.300Z,40.70
2018-12-05T17:26:44.840Z,37.10
2018-12-05T17:29:12.326Z,39.80
2018-12-05T17:31:39.861Z,38.00
2018-12-05T17:34:07.354Z,41.50
2018-12-05T17:36:35.775Z,43.40
2018-12-05T17:39:05.787Z,41.10
2018-12-05T17:41:33.277Z,39.00
2018-12-05T17:44:00.781Z,39.50
2018-12-05T17:46:28.291Z,37.60
2018-12-05T17:48:56.062Z,38.10
2018-12-05T17:51:26.298Z,36.20
2018-12-05T17:53:58.250Z,38.00
2018-12-05T17:56:26.101Z,38.40
2018-12-05T17:58:54.379Z,40.80
2018-12-05T18:01:23.486Z,39.90
2018-12-05T18:03:54.389Z,40.10
2018-12-05T18:06:22.724Z,41.20
2018-12-05T18:08:52.765Z,39.00
2018-12-05T18:11:20.289Z,41.30
2018-12-05T18:13:47.777Z,38.80
2018-12-05T18:16:15.290Z,36.50
2018-12-05T18:18:42.780Z,38.30
2018-12-05T18:21:10.293Z,30.60
2018-12-05T18:23:37.808Z,28.70
2018-12-05T18:26:05.326Z,23.70
2018-12-05T18:28:32.830Z,22.10
2018-12-05T18:31:00.337Z,19.70
2018-12-05T18:33:27.834Z,21.40
2018-12-05T18:35:55.446Z,22.20
2018-12-05T18:38:22.940Z,21.20
2018-12-05T18:40:50.454Z,21.50
2018-12-05T18:43:17.938Z,22.60
2018-12-05T18:45:45.454Z,20.60
2018-12-05T18:48:12.947Z,18.90
2018-12-05T18:50:40.706Z,19.40
2018-12-05T18:53:08.278Z,20.70
2018-12-05T18:55:35.814Z,17.70
2018-12-05T18:58:03.305Z,14.90
2018-12-05T19:00:31.149Z,15.70
2018-12-05T19:02:58.690Z,14.80
2018-12-05T19:05:26.198Z,15.70
2018-12-05T19:07:53.684Z,14.80
2018-12-05T19:10:21.206Z,15.10
2018-12-05T19:12:48.701Z,17.40
2018-12-05T19:15:16.206Z,16.70
2018-12-05T19:17:43.693Z,18.80
2018-12-05T19:20:11.205Z,20.90
2018-12-05T19:22:38.702Z,21.50
2018-12-05T19:25:06.478Z,19.80
2018-12-05T19:27:33.998Z,19.60
2018-12-05T19:30:01.499Z,20.30
2018-12-05T19:32:29.099Z,18.60
2018-12-05T19:34:56.605Z,18.30
2018-12-05T19:37:24.108Z,16.10
2018-12-05T19:39:51.638Z,14.20
2018-12-05T19:42:19.139Z,16.20
2018-12-05T19:44:46.713Z,15.60
2018-12-05T19:47:14.209Z,13.80
2018-12-05T19:49:41.734Z,12.70
2018-12-05T19:52:09.371Z,17.00
2018-12-05T19:54:36.889Z,16.70
2018-12-05T19:57:04.397Z,22.70
2018-12-05T19:59:31.905Z,21.80
2018-12-05T20:01:59.398Z,20.60
2018-12-05T20:04:26.945Z,15.00
2018-12-05T20:06:54.429Z,8.90
2018-12-05T20:09:22.284Z,8.40
2018-12-05T20:11:50.057Z,7.40
2018-12-05T20:14:30.193Z,6.60
2018-12-05T20:16:57.978Z,7.90
2018-12-05T20:19:25.536Z,7.60
2018-12-05T20:21:53.054Z,6.00
2018-12-05T20:24:20.538Z,5.30
2018-12-05T20:26:48.043Z,1.00
2018-12-05T20:29:16.027Z,5.50
2018-12-05T20:31:43.557Z,2.20
2018-12-05T20:34:11.675Z,1.00
2018-12-05T20:36:39.153Z,1.10
2018-12-05T20:39:09.824Z,1.00
2018-12-05T20:41:37.714Z,1.00
2018-12-05T20:44:05.455Z,1.00
2018-12-05T20:46:33.296Z,1.00
2018-12-05T20:49:00.922Z,1.00
2018-12-05T20:51:28.509Z,1.00
2018-12-05T20:53:55.994Z,1.00
2018-12-05T20:56:23.510Z,1.00
2018-12-05T20:58:50.997Z,1.00
2018-12-05T21:01:18.510Z,1.00
2018-12-05T21:03:46.013Z,1.00
2018-12-05T21:06:13.526Z,1.00
2018-12-05T21:08:41.649Z,1.00
2018-12-05T21:11:09.706Z,1.00
2018-12-05T21:13:37.226Z,1.00
2018-12-05T21:16:05.002Z,1.00
2018-12-05T21:18:32.797Z,1.00
2018-12-05T21:21:00.765Z,1.00
2018-12-05T21:23:28.479Z,1.00
2018-12-05T21:25:55.985Z,1.00
2018-12-05T21:28:23.749Z,1.00
2018-12-05T21:30:51.399Z,1.00
2018-12-05T21:33:19.026Z,1.00
2018-12-05T21:35:46.834Z,1.00
2018-12-05T21:38:14.506Z,1.00
2018-12-05T21:40:41.988Z,1.00
2018-12-05T21:43:10.183Z,1.00
2018-12-05T21:45:37.686Z,1.00
2018-12-05T21:48:05.165Z,1.00
2018-12-05T21:50:32.677Z,1.00
2018-12-05T21:53:00.159Z,1.00
2018-12-05T21:55:27.956Z,1.00
2018-12-05T21:57:55.481Z,1.00
2018-12-05T22:00:23.186Z,1.00
2018-12-05T22:02:51.114Z,1.00
2018-12-05T22:05:18.874Z,1.00
2018-12-05T22:07:46.404Z,1.00
2018-12-05T22:10:13.930Z,1.00
2018-12-05T22:12:41.414Z,1.00
2018-12-05T22:15:08.921Z,1.00
2018-12-05T22:17:36.401Z,1.00
2018-12-05T22:20:04.753Z,1.00
2018-12-05T22:22:32.257Z,1.00
2018-12-05T22:24:59.769Z,1.00
2018-12-05T22:27:27.277Z,2.90
2018-12-05T22:29:54.758Z,2.20
2018-12-05T22:32:22.243Z,1.00
2018-12-05T22:34:49.749Z,1.00
2018-12-05T22:37:17.236Z,1.00
2018-12-05T22:39:44.747Z,1.00
2018-12-05T22:42:12.229Z,1.00
2018-12-05T22:44:39.718Z,1.00
2018-12-05T22:47:07.221Z,1.00
2018-12-05T22:49:34.702Z,1.00
2018-12-05T22:52:02.503Z,1.00
2018-12-05T22:54:29.994Z,1.00
2018-12-05T22:57:15.541Z,1.00
2018-12-05T22:59:43.110Z,2.20
2018-12-05T23:02:10.602Z,7.10
2018-12-05T23:04:38.102Z,5.10
2018-12-05T23:07:05.746Z,1.60
2018-12-05T23:09:33.254Z,12.50
2018-12-05T23:12:00.745Z,15.20
2018-12-05T23:14:28.262Z,20.00
2018-12-05T23:16:55.766Z,19.20
2018-12-05T23:19:23.253Z,13.80
2018-12-05T23:21:50.841Z,22.00
2018-12-05T23:24:18.354Z,29.20
2018-12-05T23:26:45.925Z,33.40
2018-12-05T23:29:13.430Z,32.90
2018-12-05T23:31:40.921Z,27.60
2018-12-05T23:34:08.726Z,31.40
2018-12-05T23:36:36.226Z,44.90
2018-12-05T23:39:06.081Z,45.90
2018-12-05T23:41:33.857Z,46.50
2018-12-05T23:44:01.346Z,48.40
2018-12-05T23:46:28.855Z,49.60
2018-12-05T23:48:56.338Z,46.60
2018-12-05T23:51:23.861Z,37.40
2018-12-05T23:53:51.367Z,38.90
2018-12-05T23:56:18.862Z,32.00
2018-12-05T23:58:46.377Z,31.60
